TimeAKDT,TemperatureF,Dew PointF,Humidity,Sea Level PressureIn,VisibilityMPH,Wind Direction,Wind SpeedMPH,Gust SpeedMPH,PrecipitationIn,Events,Conditions,WindDirDegrees,DateUTC
12:16 AM,44.6,39.2,81,29.87,9.0,South,5.8,-,0.04,,Overcast,170,2013-04-25 08:16:00
12:36 AM,44.6,39.2,81,29.87,7.0,SSW,5.8,-,0.04,,Overcast,200,2013-04-25 08:36:00
12:56 AM,-9999,-9999,N/A,29.86,10.0,SE,5.8,-,0.06,,Unknown,130,2013-04-25 08:56:00
1:16 AM,44.6,39.2,81,29.86,10.0,SE,4.6,-,0.04,,Overcast,140,2013-04-25 09:16:00
1:36 AM,44.6,39.2,81,29.85,9.0,ESE,3.5,-,0.07,,Mostly Cloudy,120,2013-04-25 09:36:00
1:56 AM,44.6,39.2,81,29.84,7.0,SE,4.6,-,0.10,,Overcast,130,2013-04-25 09:56:00
2:16 AM,44.6,39.2,81,29.83,6.0,South,6.9,-,0.04,,Overcast,180,2013-04-25 10:16:00
2:36 AM,44.6,39.2,81,29.82,5.0,Calm,Calm,-,0.08,,Overcast,0,2013-04-25 10:36:00
2:56 AM,44.6,39.2,81,29.81,5.0,SSE,4.6,-,0.08,,Overcast,160,2013-04-25 10:56:00
3:16 AM,44.6,39.2,81,29.81,5.0,South,11.5,16.1,N/A,,Overcast,180,2013-04-25 11:16:00
3:36 AM,44.6,39.2,81,29.80,10.0,SSE,6.9,-,0.01,,Overcast,160,2013-04-25 11:36:00
3:56 AM,44.6,39.2,81,29.79,9.0,SSE,3.5,-,0.01,,Overcast,160,2013-04-25 11:56:00
4:16 AM,44.6,39.2,81,29.79,7.0,Calm,Calm,-,N/A,,Overcast,0,2013-04-25 12:16:00
4:36 AM,44.6,39.2,81,29.78,8.0,South,8.1,-,N/A,,Overcast,190,2013-04-25 12:36:00
4:56 AM,44.6,39.2,81,29.77,5.0,South,6.9,-,N/A,,Overcast,170,2013-04-25 12:56:00
5:16 AM,44.6,39.2,81,29.76,6.0,SE,3.5,-,N/A,,Overcast,140,2013-04-25 13:16:00
5:36 AM,44.6,39.2,81,29.75,5.0,Calm,Calm,-,0.01,,Overcast,0,2013-04-25 13:36:00
5:56 AM,44.6,39.2,81,29.75,5.0,South,3.5,-,0.01,,Overcast,180,2013-04-25 13:56:00
6:16 AM,44.6,39.2,81,29.74,10.0,South,6.9,-,N/A,,Overcast,180,2013-04-25 14:16:00
6:36 AM,44.6,37.4,76,29.73,10.0,South,9.2,-,N/A,,Overcast,190,2013-04-25 14:36:00
6:56 AM,44.6,39.2,81,29.72,10.0,SSW,6.9,-,N/A,,Overcast,210,2013-04-25 14:56:00
7:16 AM,44.6,37.4,76,29.72,10.0,South,4.6,-,N/A,,Overcast,170,2013-04-25 15:16:00
7:36 AM,44.6,39.2,81,29.72,10.0,ENE,3.5,-,N/A,,Overcast,70,2013-04-25 15:36:00
7:56 AM,44.6,39.2,81,29.71,10.0,Calm,Calm,-,N/A,,Overcast,0,2013-04-25 15:56:00
8:16 AM,44.6,39.2,81,29.70,10.0,NNW,5.8,-,N/A,,Overcast,340,2013-04-25 16:16:00
8:36 AM,44.6,37.4,76,29.70,10.0,Calm,Calm,-,N/A,,Overcast,0,2013-04-25 16:36:00
8:56 AM,44.6,39.2,81,29.70,10.0,NE,3.5,-,N/A,,Overcast,40,2013-04-25 16:56:00
9:16 AM,44.6,39.2,81,29.69,10.0,East,6.9,-,N/A,,Overcast,90,2013-04-25 17:16:00
9:36 AM,44.6,39.2,81,29.69,10.0,Calm,Calm,-,N/A,,Overcast,0,2013-04-25 17:36:00
9:56 AM,44.6,39.2,81,29.70,3.0,Calm,Calm,-,N/A,,Overcast,0,2013-04-25 17:56:00
10:16 AM,44.6,39.2,81,29.70,3.0,Calm,Calm,-,N/A,,Overcast,0,2013-04-25 18:16:00
10:36 AM,44.6,41.0,87,29.70,3.0,North,5.8,-,N/A,,Overcast,10,2013-04-25 18:36:00
10:56 AM,44.6,39.2,81,29.70,3.0,NE,6.9,-,N/A,,Overcast,50,2013-04-25 18:56:00
11:16 AM,44.6,39.2,81,29.69,3.0,ENE,5.8,-,N/A,,Overcast,60,2013-04-25 19:16:00
11:36 AM,46.4,41.0,81,29.69,3.0,ESE,4.6,-,N/A,,Overcast,120,2013-04-25 19:36:00
11:56 AM,46.4,41.0,81,29.69,5.0,ENE,6.9,-,N/A,,Overcast,70,2013-04-25 19:56:00
12:16 PM,46.4,41.0,81,29.69,5.0,ESE,4.6,-,N/A,,Overcast,110,2013-04-25 20:16:00
12:36 PM,44.6,41.0,87,29.68,5.0,Calm,Calm,-,0.02,,Overcast,0,2013-04-25 20:36:00
12:56 PM,46.4,41.0,81,29.68,7.0,South,8.1,-,0.03,,Overcast,180,2013-04-25 20:56:00
1:16 PM,46.4,39.2,76,29.68,7.0,SSE,9.2,16.1,0.01,,Overcast,160,2013-04-25 21:16:00
1:36 PM,46.4,39.2,76,29.68,7.0,South,11.5,19.6,0.02,,Overcast,190,2013-04-25 21:36:00
1:56 PM,46.4,39.2,76,29.68,7.0,South,10.4,16.1,0.03,,Overcast,180,2013-04-25 21:56:00
2:16 PM,46.4,39.2,76,29.68,7.0,South,6.9,-,0.01,,Overcast,170,2013-04-25 22:16:00
2:50 PM,46.4,39.2,76,29.68,7.0,South,5.8,-,N/A,Rain,Light Rain Showers,180,2013-04-25 22:50:00
3:16 PM,-9999,-9999,N/A,-9999,7.0,North,-9999.0,-,N/A,,Overcast,0,2013-04-25 23:16:00
3:36 PM,46.4,39.2,76,29.66,7.0,West,4.6,-,N/A,,Overcast,260,2013-04-25 23:36:00
3:56 PM,46.4,39.2,76,29.66,7.0,South,9.2,-,N/A,,Overcast,180,2013-04-25 23:56:00
4:16 PM,46.4,39.2,76,29.65,7.0,South,4.6,-,N/A,,Overcast,180,2013-04-26 00:16:00
4:36 PM,44.6,37.4,76,29.64,7.0,Calm,Calm,-,N/A,,Overcast,0,2013-04-26 00:36:00
4:56 PM,44.6,39.2,81,29.64,7.0,SSE,3.5,-,0.11,,Overcast,150,2013-04-26 00:56:00
5:16 PM,44.6,39.2,81,29.63,7.0,SSE,5.8,-,0.03,,Overcast,160,2013-04-26 01:16:00
5:36 PM,44.6,37.4,76,29.63,7.0,South,10.4,-,0.08,,Overcast,190,2013-04-26 01:36:00
5:56 PM,44.6,37.4,76,29.64,7.0,SSE,6.9,-,0.10,,Overcast,160,2013-04-26 01:56:00
6:16 PM,44.6,39.2,81,29.64,7.0,East,4.6,-,0.04,,Overcast,90,2013-04-26 02:16:00
6:36 PM,42.8,39.2,87,29.64,7.0,East,6.9,-,0.09,,Overcast,80,2013-04-26 02:36:00
6:56 PM,44.6,39.2,81,29.63,7.0,East,4.6,-,0.12,,Overcast,100,2013-04-26 02:56:00
7:16 PM,44.6,39.2,81,29.62,7.0,East,5.8,-,0.07,,Overcast,80,2013-04-26 03:16:00
7:36 PM,42.8,39.2,87,29.62,7.0,East,3.5,-,0.10,,Overcast,80,2013-04-26 03:36:00
7:56 PM,42.8,39.2,87,29.61,4.0,Calm,Calm,-,0.13,,Overcast,0,2013-04-26 03:56:00
8:16 PM,42.8,39.2,87,29.61,4.0,Calm,Calm,-,0.04,,Overcast,0,2013-04-26 04:16:00
8:36 PM,42.8,39.2,87,29.61,4.0,Calm,Calm,-,0.09,,Overcast,0,2013-04-26 04:36:00
8:56 PM,42.8,37.4,81,29.61,4.0,SE,4.6,-,0.11,,Overcast,140,2013-04-26 04:56:00
9:16 PM,42.8,37.4,81,29.61,4.0,Calm,Calm,-,0.03,,Overcast,0,2013-04-26 05:16:00
9:36 PM,42.8,39.2,87,29.61,4.0,East,3.5,-,0.07,,Overcast,80,2013-04-26 05:36:00
10:16 PM,41.0,37.4,87,29.60,10.0,Calm,Calm,-,N/A,,Overcast,0,2013-04-26 06:16:00
10:36 PM,41.0,37.4,87,29.60,10.0,Calm,Calm,-,N/A,,Overcast,0,2013-04-26 06:36:00
11:16 PM,41.0,37.4,87,29.59,9.0,East,4.6,-,N/A,,Overcast,100,2013-04-26 07:16:00
11:36 PM,41.0,37.4,87,29.58,10.0,Calm,Calm,-,N/A,,Overcast,0,2013-04-26 07:36:00
11:56 PM,41.0,37.4,87,29.58,9.0,NE,3.5,-,0.06,,Overcast,40,2013-04-26 07:56:00